Time;durP1;ratioP1;P1;durP2;ratioP2;P2;SDS_P1;SDS_P2;PMS_P1;PMS_P2;Temp;Humidity;BMP_temperature;BMP_pressure;BME280_temperature;BME280_humidity;BME280_pressure;Samples;Min_cycle;Max_cycle;Signal;HPM_P1;HPM_P2
2023/09/19 00:01:40;;;;;;;;;;;;;;;18.99;50.25;99963.25;5094588;28;19920;-75
2023/09/19 00:04:09;;;;;;;;;;;;;;;18.94;50.75;99968.47;5094417;28;19916;-76
2023/09/19 00:06:38;;;;;;;;;;;;;;;18.84;50.56;99963.63;5094491;28;20316;-77
2023/09/19 00:09:03;;;;;;;;;;;;;;;18.79;50.56;99962.66;5095426;28;19916;-76
2023/09/19 00:11:28;;;;;;;;;;;;;;;18.76;50.92;99966.59;5094572;28;20048;-77
2023/09/19 00:13:54;;;;;;;;;;;;;;;18.75;50.41;99966.81;5094302;28;20395;-76
2023/09/19 00:16:19;;;;;;;;;;;;;;;18.71;50.85;99972.59;5094123;28;19923;-76
2023/09/19 00:18:45;;;;;;;;;;;;;;;18.70;51.09;99962.13;5094317;28;20358;-76
2023/09/19 00:21:10;;;;;;;;;;;;;;;18.66;50.95;99963.59;5076106;28;19912;-76
2023/09/19 00:23:36;;;;;;;;;;;;;;;18.70;50.14;99960.25;5074960;28;20312;-77
2023/09/19 00:26:01;;;;;;;;;;;;;;;18.71;50.56;99961.06;5094086;28;19989;-76
2023/09/19 00:28:27;;;;;;;;;;;;;;;18.71;50.31;99961.91;5093944;28;20023;-77
2023/09/19 00:30:55;;;;;;;;;;;;;;;18.73;50.51;99953.66;5093903;28;19919;-76
2023/09/19 00:33:20;;;;;;;;;;;;;;;18.74;50.43;99944.59;5076070;28;19919;-76
2023/09/19 00:35:49;;;;;;;;;;;;;;;18.81;50.26;99949.88;5093743;28;19917;-76
2023/09/19 00:38:19;;;;;;;;;;;;;;;18.79;50.52;99955.44;5075652;28;19912;-76
2023/09/19 00:40:45;;;;;;;;;;;;;;;18.71;50.90;99948.53;5093837;28;19912;-78
2023/09/19 00:43:11;;;;;;;;;;;;;;;18.64;50.80;99963.00;5093843;28;19919;-76
2023/09/19 00:45:38;;;;;;;;;;;;;;;18.62;50.79;99955.19;5093730;28;19923;-76
2023/09/19 00:48:11;;;;;;;;;;;;;;;18.57;50.89;99951.47;5075567;28;19920;-77
2023/09/19 00:50:41;;;;;;;;;;;;;;;18.45;50.41;99954.06;5093714;28;19916;-77
2023/09/19 00:53:08;;;;;;;;;;;;;;;18.37;50.78;99957.81;5093548;28;20487;-76
2023/09/19 00:55:34;;;;;;;;;;;;;;;18.25;51.78;99958.75;5093775;28;19916;-76
2023/09/19 00:57:59;;;;;;;;;;;;;;;18.23;50.98;99950.94;5093901;28;19916;-76
2023/09/19 01:00:25;;;;;;;;;;;;;;;18.22;50.87;99951.97;5093421;28;19919;-76
2023/09/19 01:02:50;;;;;;;;;;;;;;;18.19;51.22;99963.09;5093054;28;19927;-76
2023/09/19 01:05:16;;;;;;;;;;;;;;;18.15;51.25;99959.25;5093423;28;19975;-77
2023/09/19 01:07:41;;;;;;;;;;;;;;;18.13;51.86;99957.81;5093181;28;19912;-76
2023/09/19 01:10:12;;;;;;;;;;;;;;;18.15;51.33;99958.41;5074987;28;19912;-75
2023/09/19 01:12:49;;;;;;;;;;;;;;;18.17;51.05;99964.38;5093351;28;19912;-77
2023/09/19 01:15:33;;;;;;;;;;;;;;;18.16;51.56;99952.84;5093187;28;19916;-77
2023/09/19 01:18:19;;;;;;;;;;;;;;;18.15;51.40;99955.75;5093310;28;19946;-77
2023/09/19 01:20:50;;;;;;;;;;;;;;;18.13;52.44;99953.28;5092251;28;19912;-77
2023/09/19 01:23:35;;;;;;;;;;;;;;;18.10;52.17;99951.06;5093173;28;19985;-76
2023/09/19 01:26:10;;;;;;;;;;;;;;;18.09;51.74;99950.22;5092565;28;19947;-77
2023/09/19 01:28:54;;;;;;;;;;;;;;;18.08;52.64;99955.78;5093070;28;19918;-77
2023/09/19 01:31:21;;;;;;;;;;;;;;;18.03;52.37;99955.63;5074828;28;19955;-75
2023/09/19 01:33:57;;;;;;;;;;;;;;;18.05;51.78;99950.88;5093015;28;19912;-76
2023/09/19 01:36:23;;;;;;;;;;;;;;;18.01;52.24;99949.69;5092439;28;19916;-77
2023/09/19 01:38:49;;;;;;;;;;;;;;;18.01;51.78;99952.34;5092842;28;19965;-77
2023/09/19 01:41:19;;;;;;;;;;;;;;;17.98;52.75;99950.13;5093032;28;20358;-76
2023/09/19 01:43:46;;;;;;;;;;;;;;;17.98;52.26;99942.91;5074420;28;20374;-75
2023/09/19 01:46:23;;;;;;;;;;;;;;;18.04;52.42;99949.25;5092524;28;19965;-77
2023/09/19 01:49:03;;;;;;;;;;;;;;;18.05;52.89;99946.34;5092398;28;20425;-76
2023/09/19 01:51:49;;;;;;;;;;;;;;;17.99;52.59;99944.56;5074169;28;20007;-75
2023/09/19 01:54:18;;;;;;;;;;;;;;;17.99;52.33;99939.22;5074646;28;19918;-75
2023/09/19 01:57:07;;;;;;;;;;;;;;;17.99;52.17;99938.38;5092396;28;19924;-78
2023/09/19 01:59:36;;;;;;;;;;;;;;;17.92;53.16;99938.44;5079780;28;19912;-78
2023/09/19 02:02:03;;;;;;;;;;;;;;;17.88;53.33;99945.25;5073988;28;19974;-78
2023/09/19 02:04:28;;;;;;;;;;;;;;;17.87;53.11;99937.44;5091932;28;20465;-77
2023/09/19 02:06:55;;;;;;;;;;;;;;;17.88;53.05;99942.56;5092417;28;19999;-78
2023/09/19 02:09:21;;;;;;;;;;;;;;;17.93;52.85;99931.25;5092193;28;19923;-76
2023/09/19 02:11:46;;;;;;;;;;;;;;;17.98;53.05;99936.75;5092267;28;19916;-76
2023/09/19 02:14:11;;;;;;;;;;;;;;;17.93;52.70;99936.59;5092172;28;19912;-77
2023/09/19 02:16:37;;;;;;;;;;;;;;;17.89;52.96;99932.72;5092008;28;19962;-75
2023/09/19 02:19:05;;;;;;;;;;;;;;;17.85;52.60;99942.19;5091996;28;19912;-77
2023/09/19 02:21:31;;;;;;;;;;;;;;;17.88;52.68;99939.09;5092086;28;19935;-77
2023/09/19 02:23:57;;;;;;;;;;;;;;;17.92;53.11;99935.75;5073998;28;20380;-77
2023/09/19 02:26:24;;;;;;;;;;;;;;;17.91;53.89;99933.31;5092012;28;19919;-76
2023/09/19 02:28:49;;;;;;;;;;;;;;;17.87;53.48;99935.59;5092026;28;19919;-75
2023/09/19 02:31:16;;;;;;;;;;;;;;;17.85;52.85;99931.50;5091888;28;20312;-75
2023/09/19 02:33:42;;;;;;;;;;;;;;;17.79;53.61;99933.97;5073850;28;19919;-76
2023/09/19 02:36:08;;;;;;;;;;;;;;;17.77;53.77;99933.38;5091835;28;19920;-75
2023/09/19 02:38:33;;;;;;;;;;;;;;;17.76;53.88;99929.06;5091877;28;19916;-76
2023/09/19 02:40:59;;;;;;;;;;;;;;;17.80;53.44;99932.13;5073648;28;20025;-77
2023/09/19 02:43:24;;;;;;;;;;;;;;;17.82;53.09;99923.88;5091787;28;19920;-76
2023/09/19 02:45:50;;;;;;;;;;;;;;;17.77;53.14;99925.34;5091712;28;19912;-76
2023/09/19 02:48:15;;;;;;;;;;;;;;;17.74;53.46;99927.63;5094716;28;19912;-78
2023/09/19 02:50:41;;;;;;;;;;;;;;;17.72;53.14;99922.50;5095927;28;19919;-75
2023/09/19 02:53:07;;;;;;;;;;;;;;;17.68;53.12;99918.63;5096024;28;19916;-77
2023/09/19 02:55:32;;;;;;;;;;;;;;;17.67;53.28;99922.34;5095946;28;19916;-76
2023/09/19 02:57:57;;;;;;;;;;;;;;;17.61;53.44;99915.16;5095940;28;19916;-76
2023/09/19 03:00:23;;;;;;;;;;;;;;;17.64;53.69;99920.06;5095786;28;20413;-76
2023/09/19 03:02:49;;;;;;;;;;;;;;;17.64;54.04;99911.25;5095546;28;20007;-76
2023/09/19 03:05:15;;;;;;;;;;;;;;;17.64;53.81;99916.56;5095712;28;19919;-76
2023/09/19 03:07:42;;;;;;;;;;;;;;;17.65;53.89;99912.88;5095699;28;19912;-77
2023/09/19 03:10:08;;;;;;;;;;;;;;;17.66;54.20;99915.34;5095614;28;19919;-77
2023/09/19 03:12:34;;;;;;;;;;;;;;;17.62;54.16;99915.97;5095667;28;19904;-76
2023/09/19 03:14:59;;;;;;;;;;;;;;;17.60;53.04;99916.19;5095424;28;19917;-76
2023/09/19 03:17:25;;;;;;;;;;;;;;;17.52;53.40;99912.94;5095553;28;19912;-77
2023/09/19 03:19:50;;;;;;;;;;;;;;;17.49;54.25;99911.53;5095217;28;19912;-76
2023/09/19 03:22:16;;;;;;;;;;;;;;;17.44;54.88;99906.84;5095334;28;19912;-76
2023/09/19 03:24:41;;;;;;;;;;;;;;;17.38;54.85;99901.53;5095439;28;19943;-76
2023/09/19 03:27:08;;;;;;;;;;;;;;;17.41;53.88;99906.44;5095243;28;19965;-76
2023/09/19 03:29:34;;;;;;;;;;;;;;;17.38;54.83;99906.88;5095259;28;19923;-76
2023/09/19 03:31:59;;;;;;;;;;;;;;;17.33;54.56;99904.84;5095349;28;20312;-76
2023/09/19 03:34:24;;;;;;;;;;;;;;;17.30;54.39;99909.78;5095127;28;19912;-76
2023/09/19 03:36:50;;;;;;;;;;;;;;;17.29;53.86;99918.81;5096000;28;19919;-77
2023/09/19 03:39:15;;;;;;;;;;;;;;;17.25;54.29;99907.75;5096142;28;19912;-77
2023/09/19 03:41:41;;;;;;;;;;;;;;;17.23;54.42;99914.34;5095012;28;20381;-78
2023/09/19 03:44:07;;;;;;;;;;;;;;;17.21;55.07;99911.06;5076703;28;19919;-77
2023/09/19 03:46:32;;;;;;;;;;;;;;;17.21;54.20;99919.06;5094851;28;19908;-77
2023/09/19 03:48:58;;;;;;;;;;;;;;;17.26;53.83;99921.91;5094896;28;20308;-77
2023/09/19 03:51:23;;;;;;;;;;;;;;;17.33;53.87;99920.84;5094939;28;19916;-78
2023/09/19 03:53:51;;;;;;;;;;;;;;;17.34;53.47;99927.81;5094811;28;19912;-77
2023/09/19 03:56:16;;;;;;;;;;;;;;;17.31;53.97;99920.25;5094631;28;20052;-78
2023/09/19 03:58:42;;;;;;;;;;;;;;;17.26;54.44;99924.59;5094384;28;20414;-78
2023/09/19 04:01:07;;;;;;;;;;;;;;;17.22;54.58;99918.03;5094412;28;19970;-75
2023/09/19 04:03:46;;;;;;;;;;;;;;;17.21;54.41;99929.75;5094258;28;20007;-77
2023/09/19 04:06:15;;;;;;;;;;;;;;;17.16;54.16;99925.03;5094287;28;19965;-78
2023/09/19 04:08:43;;;;;;;;;;;;;;;17.12;54.49;99934.50;5075545;28;21605;-78
2023/09/19 04:11:09;;;;;;;;;;;;;;;17.12;54.11;99931.81;5094288;28;19912;-77
2023/09/19 04:13:34;;;;;;;;;;;;;;;17.11;54.14;99925.66;5094458;28;19912;-77
2023/09/19 04:15:59;;;;;;;;;;;;;;;17.14;54.14;99927.91;5094299;28;19923;-77
2023/09/19 04:18:25;;;;;;;;;;;;;;;17.10;53.63;99937.38;5094291;28;19962;-78
2023/09/19 04:20:50;;;;;;;;;;;;;;;17.12;53.97;99937.16;5094352;28;19974;-76
2023/09/19 04:23:15;;;;;;;;;;;;;;;17.11;53.47;99951.53;5094298;28;19991;-75
2023/09/19 04:25:41;;;;;;;;;;;;;;;17.05;53.91;99949.66;5094229;28;19920;-77
2023/09/19 04:28:06;;;;;;;;;;;;;;;17.02;54.21;99944.75;5075888;28;19919;-78
2023/09/19 04:30:31;;;;;;;;;;;;;;;17.06;54.17;99961.97;5094127;28;19912;-78
2023/09/19 04:32:57;;;;;;;;;;;;;;;17.02;54.77;99952.75;5075721;28;19976;-74
2023/09/19 04:35:22;;;;;;;;;;;;;;;16.95;54.13;99957.28;5093711;28;19920;-77
2023/09/19 04:37:47;;;;;;;;;;;;;;;16.88;54.92;99954.66;5093896;28;19968;-77
2023/09/19 04:40:17;;;;;;;;;;;;;;;16.85;55.09;99955.06;5094010;28;19927;-78
2023/09/19 04:42:43;;;;;;;;;;;;;;;16.83;55.26;99946.44;5076225;28;20037;-75
2023/09/19 04:45:09;;;;;;;;;;;;;;;16.89;55.24;99948.28;5075721;28;19946;-76
2023/09/19 04:47:35;;;;;;;;;;;;;;;17.04;55.06;99942.69;5075540;28;19920;-78
2023/09/19 04:50:00;;;;;;;;;;;;;;;17.09;54.45;99948.22;5075541;28;19904;-78
2023/09/19 04:52:25;;;;;;;;;;;;;;;17.14;55.19;99935.09;5093666;28;20004;-76
2023/09/19 04:54:51;;;;;;;;;;;;;;;17.19;54.03;99945.13;5093585;28;20324;-76
2023/09/19 04:57:16;;;;;;;;;;;;;;;17.23;53.92;99946.34;5093619;28;19918;-76
2023/09/19 04:59:41;;;;;;;;;;;;;;;17.28;54.63;99949.22;5093506;28;20404;-76
2023/09/19 05:02:09;;;;;;;;;;;;;;;17.34;54.59;99951.03;5075270;28;19967;-77
2023/09/19 05:04:35;;;;;;;;;;;;;;;17.35;55.49;99950.81;5093378;28;20393;-75
2023/09/19 05:07:03;;;;;;;;;;;;;;;17.38;54.86;99950.38;5075203;28;19912;-77
2023/09/19 05:09:29;;;;;;;;;;;;;;;17.48;54.43;99949.94;5093126;28;19912;-77
2023/09/19 05:11:54;;;;;;;;;;;;;;;17.51;54.78;99949.50;5093339;28;19918;-78
2023/09/19 05:14:20;;;;;;;;;;;;;;;17.62;54.59;99951.50;5093550;28;19912;-76
2023/09/19 05:16:46;;;;;;;;;;;;;;;17.69;54.44;99949.66;5093242;28;19916;-77
2023/09/19 05:19:11;;;;;;;;;;;;;;;17.76;54.13;99945.09;5075023;28;20308;-77
2023/09/19 05:21:38;;;;;;;;;;;;;;;17.81;54.92;99949.78;5093195;28;19934;-75
2023/09/19 05:24:06;;;;;;;;;;;;;;;17.88;56.16;99941.75;5093017;28;19912;-77
2023/09/19 05:26:31;;;;;;;;;;;;;;;17.92;54.91;99956.31;5092982;28;20025;-76
2023/09/19 05:28:56;;;;;;;;;;;;;;;17.97;55.77;99951.97;5074551;28;19916;-77
2023/09/19 05:31:23;;;;;;;;;;;;;;;18.06;55.06;99948.00;5074441;28;20006;-75
2023/09/19 05:33:48;;;;;;;;;;;;;;;18.13;55.21;99947.94;5074507;28;19912;-74
2023/09/19 05:36:15;;;;;;;;;;;;;;;18.19;56.10;99948.94;5092998;28;20403;-76
2023/09/19 05:38:42;;;;;;;;;;;;;;;18.26;55.23;99950.50;5074979;28;19912;-76
2023/09/19 05:41:09;;;;;;;;;;;;;;;18.33;55.85;99947.78;5092635;28;19912;-77
2023/09/19 05:43:37;;;;;;;;;;;;;;;18.40;54.25;99956.56;5074194;28;20290;-77
2023/09/19 05:46:02;;;;;;;;;;;;;;;18.49;55.36;99949.09;5089771;28;19912;-78
2023/09/19 05:48:28;;;;;;;;;;;;;;;18.59;54.64;99942.22;5090204;28;20007;-76
2023/09/19 05:50:53;;;;;;;;;;;;;;;18.67;54.92;99944.66;5090087;28;20373;-78
2023/09/19 05:53:18;;;;;;;;;;;;;;;18.73;55.17;99943.75;5091699;28;19920;-74
2023/09/19 05:55:43;;;;;;;;;;;;;;;18.78;54.55;99948.44;5075498;28;19916;-76
2023/09/19 05:58:10;;;;;;;;;;;;;;;18.87;54.05;99947.13;5092362;28;19920;-76
2023/09/19 06:00:36;;;;;;;;;;;;;;;18.99;54.08;99949.88;5090000;28;19931;-74
2023/09/19 06:03:01;;;;;;;;;;;;;;;19.11;54.20;99941.91;5091744;28;20416;-77
2023/09/19 06:05:27;;;;;;;;;;;;;;;19.22;54.13;99939.31;5073822;28;19934;-76
2023/09/19 06:07:53;;;;;;;;;;;;;;;19.35;54.06;99941.03;5092119;28;19912;-76
2023/09/19 06:10:20;;;;;;;;;;;;;;;19.38;53.37;99939.75;5091322;28;19941;-75
2023/09/19 06:12:46;;;;;;;;;;;;;;;19.44;53.16;99941.53;5090292;28;20001;-77
2023/09/19 06:15:15;;;;;;;;;;;;;;;19.45;53.80;99933.28;5089254;28;19920;-75
2023/09/19 06:17:51;;;;;;;;;;;;;;;19.53;53.96;99926.81;5090776;28;20034;-76
2023/09/19 06:20:19;;;;;;;;;;;;;;;19.62;54.18;99945.03;5091801;28;19912;-76
2023/09/19 06:22:45;;;;;;;;;;;;;;;19.71;52.87;99925.94;5085716;28;19945;-75
2023/09/19 06:25:11;;;;;;;;;;;;;;;19.77;53.38;99933.88;5088704;28;20289;-77
2023/09/19 06:27:43;;;;;;;;;;;;;;;19.84;53.56;99928.44;5091476;28;19922;-77
2023/09/19 06:30:09;;;;;;;;;;;;;;;19.92;53.50;99934.28;5090441;28;20381;-75
2023/09/19 06:32:35;;;;;;;;;;;;;;;20.02;53.39;99936.41;5091396;28;19916;-77
2023/09/19 06:35:00;;;;;;;;;;;;;;;20.12;53.67;99936.69;5071742;28;19963;-76
2023/09/19 06:37:28;;;;;;;;;;;;;;;20.19;53.20;99937.41;5091789;28;19915;-75
2023/09/19 06:39:54;;;;;;;;;;;;;;;20.21;52.35;99935.28;5073685;28;20419;-76
2023/09/19 06:42:19;;;;;;;;;;;;;;;20.29;53.33;99932.28;5091137;28;19951;-77
2023/09/19 06:44:44;;;;;;;;;;;;;;;20.38;52.30;99937.28;5085759;28;19956;-77
2023/09/19 06:47:10;;;;;;;;;;;;;;;20.44;52.74;99931.03;5090449;28;20404;-77
2023/09/19 06:49:35;;;;;;;;;;;;;;;20.51;52.45;99934.41;5089563;28;19920;-76
2023/09/19 06:52:02;;;;;;;;;;;;;;;20.52;53.16;99925.31;5068679;28;19923;-77
2023/09/19 06:54:31;;;;;;;;;;;;;;;20.65;52.12;99924.25;5086707;28;19916;-77
2023/09/19 06:56:59;;;;;;;;;;;;;;;20.76;51.56;99923.44;5076020;28;19920;-77
2023/09/19 06:59:25;;;;;;;;;;;;;;;20.80;52.03;99929.97;5065219;28;19921;-76
2023/09/19 07:01:51;;;;;;;;;;;;;;;20.90;51.81;99922.16;5086158;28;19929;-77
2023/09/19 07:04:16;;;;;;;;;;;;;;;20.99;51.54;99920.75;5090039;28;19946;-77
2023/09/19 07:06:42;;;;;;;;;;;;;;;21.05;51.12;99927.03;5088817;28;20301;-75
2023/09/19 07:09:08;;;;;;;;;;;;;;;21.13;51.09;99926.66;5087921;28;19920;-76
2023/09/19 07:11:33;;;;;;;;;;;;;;;21.18;50.88;99916.84;5089111;28;19977;-76
2023/09/19 07:13:59;;;;;;;;;;;;;;;21.27;50.46;99920.00;5091011;28;20004;-76
2023/09/19 07:16:29;;;;;;;;;;;;;;;21.36;50.47;99917.75;5089617;28;19920;-77
2023/09/19 07:18:56;;;;;;;;;;;;;;;21.44;49.97;99917.34;5090497;28;19923;-77
2023/09/19 07:21:22;;;;;;;;;;;;;;;21.52;50.00;99907.03;5090648;28;19920;-76
2023/09/19 07:23:47;;;;;;;;;;;;;;;21.59;49.70;99914.16;5088210;28;19916;-76
2023/09/19 07:26:13;;;;;;;;;;;;;;;21.65;49.70;99915.91;5087965;28;19984;-76
2023/09/19 07:28:38;;;;;;;;;;;;;;;21.73;49.82;99907.44;5087818;28;19920;-76
2023/09/19 07:31:04;;;;;;;;;;;;;;;21.80;49.43;99908.09;5089753;28;20034;-76
2023/09/19 07:33:30;;;;;;;;;;;;;;;21.85;49.60;99897.44;5074360;28;19913;-77
2023/09/19 07:35:55;;;;;;;;;;;;;;;21.91;49.26;99899.16;5094550;28;19921;-77
2023/09/19 07:38:21;;;;;;;;;;;;;;;21.92;49.59;99889.22;5092778;28;19931;-76
2023/09/19 07:40:46;;;;;;;;;;;;;;;22.00;49.49;99884.25;5092626;28;19916;-75
2023/09/19 07:43:12;;;;;;;;;;;;;;;22.11;49.19;99885.25;5094272;28;20392;-77
2023/09/19 07:45:37;;;;;;;;;;;;;;;22.21;48.71;99885.41;5093954;28;19923;-76
2023/09/19 07:48:04;;;;;;;;;;;;;;;22.29;49.08;99892.25;5092182;28;19916;-76
2023/09/19 07:50:30;;;;;;;;;;;;;;;22.35;48.97;99884.03;5071261;28;19916;-76
2023/09/19 07:52:56;;;;;;;;;;;;;;;22.40;48.80;99881.41;5092836;28;20308;-75
2023/09/19 07:55:24;;;;;;;;;;;;;;;22.43;48.50;99880.13;5071873;28;19986;-74
2023/09/19 07:57:50;;;;;;;;;;;;;;;22.47;48.64;99878.56;5089870;28;19916;-77
2023/09/19 08:00:15;;;;;;;;;;;;;;;22.56;48.54;99870.88;5085337;28;19974;-75
2023/09/19 08:02:41;;;;;;;;;;;;;;;22.62;48.75;99869.88;5088604;28;19921;-75
2023/09/19 08:05:09;;;;;;;;;;;;;;;22.66;48.50;99861.06;5086876;28;19951;-77
2023/09/19 08:07:38;;;;;;;;;;;;;;;22.77;48.30;99862.81;5092576;28;19916;-76
2023/09/19 08:10:04;;;;;;;;;;;;;;;22.85;48.00;99872.38;5092984;28;19916;-77
2023/09/19 08:12:30;;;;;;;;;;;;;;;22.92;47.33;99874.88;5092876;28;19916;-76
2023/09/19 08:14:55;;;;;;;;;;;;;;;22.96;47.17;99863.34;5092367;28;19924;-76
2023/09/19 08:17:22;;;;;;;;;;;;;;;22.97;46.76;99870.34;5093534;28;19917;-75
2023/09/19 08:19:49;;;;;;;;;;;;;;;23.03;46.66;99860.47;5090519;28;19916;-77
2023/09/19 08:22:17;;;;;;;;;;;;;;;23.03;46.46;99869.34;5088781;28;20002;-77
2023/09/19 08:24:42;;;;;;;;;;;;;;;23.14;46.50;99860.34;5091960;28;20489;-76
2023/09/19 08:27:10;;;;;;;;;;;;;;;23.28;46.02;99850.00;5093198;28;19999;-76
2023/09/19 08:29:35;;;;;;;;;;;;;;;23.46;46.10;99859.59;5093845;28;20289;-76
2023/09/19 08:32:00;;;;;;;;;;;;;;;23.62;45.02;99852.50;5092015;28;19969;-73
2023/09/19 08:34:26;;;;;;;;;;;;;;;23.77;44.76;99848.06;5093401;28;19916;-75
2023/09/19 08:36:52;;;;;;;;;;;;;;;23.92;44.97;99841.19;5092362;28;19927;-76
2023/09/19 08:39:20;;;;;;;;;;;;;;;24.04;43.75;99839.13;5091992;28;19931;-76
2023/09/19 08:41:45;;;;;;;;;;;;;;;24.18;44.64;99836.78;5089956;28;19924;-74
2023/09/19 08:44:10;;;;;;;;;;;;;;;24.21;42.86;99828.16;5088527;28;20007;-76
2023/09/19 08:46:38;;;;;;;;;;;;;;;24.28;43.05;99826.88;5092015;28;19939;-76
2023/09/19 08:49:05;;;;;;;;;;;;;;;24.48;43.33;99828.88;5090610;28;19947;-76
2023/09/19 08:51:37;;;;;;;;;;;;;;;24.72;43.07;99823.91;5093109;28;19939;-76
2023/09/19 08:54:03;;;;;;;;;;;;;;;24.93;42.26;99822.06;5092966;28;19916;-76
2023/09/19 08:56:29;;;;;;;;;;;;;;;25.06;41.46;99821.59;5092904;28;20293;-76
2023/09/19 08:58:58;;;;;;;;;;;;;;;25.22;42.28;99823.25;5093435;28;19919;-76
2023/09/19 09:01:24;;;;;;;;;;;;;;;25.28;41.09;99819.53;5093176;28;20321;-76
2023/09/19 09:03:53;;;;;;;;;;;;;;;25.41;42.42;99834.41;5077004;28;19923;-76
2023/09/19 09:06:23;;;;;;;;;;;;;;;25.46;40.07;99820.06;5090638;28;19916;-76
2023/09/19 09:08:48;;;;;;;;;;;;;;;25.50;41.26;99816.56;5074423;28;19920;-76
2023/09/19 09:11:14;;;;;;;;;;;;;;;25.59;40.26;99827.66;5093052;28;19926;-76
2023/09/19 09:13:41;;;;;;;;;;;;;;;25.67;40.83;99812.81;5091486;28;19923;-76
2023/09/19 09:16:06;;;;;;;;;;;;;;;25.83;39.95;99803.63;5090595;28;19967;-75
2023/09/19 09:18:31;;;;;;;;;;;;;;;26.13;39.89;99805.50;5091685;28;20378;-76
2023/09/19 09:20:57;;;;;;;;;;;;;;;26.37;39.70;99792.19;5071279;28;20455;-76
2023/09/19 09:23:22;;;;;;;;;;;;;;;26.59;40.02;99788.03;5093168;28;19912;-76
2023/09/19 09:25:54;;;;;;;;;;;;;;;26.78;38.75;99787.44;5093021;28;20317;-76
2023/09/19 09:28:21;;;;;;;;;;;;;;;26.95;37.80;99785.19;5092462;28;19927;-75
2023/09/19 09:30:47;;;;;;;;;;;;;;;27.17;38.83;99782.09;5072340;28;20408;-76
2023/09/19 09:33:13;;;;;;;;;;;;;;;27.38;37.73;99780.03;5087042;28;19967;-75
2023/09/19 09:35:51;;;;;;;;;;;;;;;27.53;36.73;99778.06;5093614;28;19927;-77
2023/09/19 09:38:18;;;;;;;;;;;;;;;27.74;38.17;99778.72;5091611;28;19916;-76
2023/09/19 09:40:58;;;;;;;;;;;;;;;27.92;35.72;99776.38;5090735;28;20384;-76
2023/09/19 09:43:30;;;;;;;;;;;;;;;27.87;36.33;99777.22;5072485;28;19923;-77
2023/09/19 09:46:11;;;;;;;;;;;;;;;27.92;35.28;99771.75;5088789;28;20316;-75
2023/09/19 09:48:38;;;;;;;;;;;;;;;27.94;35.45;99766.03;5091409;28;19920;-75
2023/09/19 09:51:07;;;;;;;;;;;;;;;28.02;35.71;99760.78;5069512;28;20032;-75
2023/09/19 09:53:33;;;;;;;;;;;;;;;28.08;35.18;99761.53;5089969;28;19975;-75
2023/09/19 09:56:09;;;;;;;;;;;;;;;28.17;34.38;99757.09;5091644;28;20461;-75
2023/09/19 09:58:35;;;;;;;;;;;;;;;28.31;36.36;99754.56;5072057;28;19916;-75
2023/09/19 10:01:20;;;;;;;;;;;;;;;28.47;36.39;99758.69;5089486;28;20308;-74
2023/09/19 10:03:51;;;;;;;;;;;;;;;28.52;35.89;99752.41;5090146;28;19926;-76
2023/09/19 10:06:27;;;;;;;;;;;;;;;28.54;35.84;99753.72;5089869;28;19946;-75
2023/09/19 10:09:06;;;;;;;;;;;;;;;28.58;36.10;99752.03;5092002;28;19939;-74
2023/09/19 10:11:32;;;;;;;;;;;;;;;28.74;33.82;99741.78;5090296;28;19912;-75
2023/09/19 10:14:01;;;;;;;;;;;;;;;28.84;33.40;99738.13;5088175;28;19916;-73
2023/09/19 10:16:30;;;;;;;;;;;;;;;28.96;32.93;99747.47;5091121;28;20016;-76
2023/09/19 10:18:58;;;;;;;;;;;;;;;29.05;33.12;99732.13;5092352;28;20007;-76
2023/09/19 10:21:24;;;;;;;;;;;;;;;29.19;33.39;99731.38;5073950;28;19912;-75
2023/09/19 10:23:52;;;;;;;;;;;;;;;29.33;33.38;99724.06;5091070;28;20014;-75
2023/09/19 10:26:17;;;;;;;;;;;;;;;29.54;33.60;99722.66;5089588;28;20360;-75
2023/09/19 10:28:44;;;;;;;;;;;;;;;29.71;32.47;99717.44;5090200;28;19912;-75
2023/09/19 10:31:14;;;;;;;;;;;;;;;29.90;31.17;99708.41;5086541;28;19920;-76
2023/09/19 10:33:41;;;;;;;;;;;;;;;30.07;31.54;99714.09;5091801;28;19966;-76
2023/09/19 10:36:06;;;;;;;;;;;;;;;30.12;32.19;99716.72;5091837;28;19916;-76
2023/09/19 10:38:33;;;;;;;;;;;;;;;30.15;31.42;99713.38;5091608;28;20406;-76
2023/09/19 10:41:00;;;;;;;;;;;;;;;30.35;30.21;99702.06;5091836;28;20002;-77
2023/09/19 10:43:26;;;;;;;;;;;;;;;30.53;31.02;99702.25;5089806;28;19912;-74
2023/09/19 10:45:53;;;;;;;;;;;;;;;30.69;30.11;99694.59;5089702;28;19923;-75
2023/09/19 10:48:28;;;;;;;;;;;;;;;30.78;29.64;99688.09;5073473;28;20377;-76
2023/09/19 10:51:05;;;;;;;;;;;;;;;30.90;30.52;99680.16;5088674;28;20288;-76
2023/09/19 10:53:40;;;;;;;;;;;;;;;30.96;30.39;99684.38;5073258;28;20011;-76
2023/09/19 10:56:16;;;;;;;;;;;;;;;31.08;29.41;99691.19;5091456;28;20341;-76
2023/09/19 10:58:44;;;;;;;;;;;;;;;31.30;29.75;99672.16;5073305;28;20328;-75
2023/09/19 11:01:12;;;;;;;;;;;;;;;31.46;29.87;99678.00;5091509;28;20296;-76
2023/09/19 11:03:43;;;;;;;;;;;;;;;31.58;29.00;99675.50;5091250;28;20357;-76
2023/09/19 11:06:18;;;;;;;;;;;;;;;31.70;29.87;99675.75;5073325;28;19996;-76
2023/09/19 11:11:39;;;;;;;;;;;;;;;31.82;30.09;99661.50;5095689;28;20355;-75
2023/09/19 11:14:14;;;;;;;;;;;;;;;31.82;29.47;99656.03;5077087;28;20007;-75
2023/09/19 11:16:39;;;;;;;;;;;;;;;31.99;27.70;99650.66;5095051;28;19923;-76
2023/09/19 11:19:07;;;;;;;;;;;;;;;32.00;27.19;99646.00;5076902;28;20313;-74
2023/09/19 11:21:35;;;;;;;;;;;;;;;32.06;28.21;99648.25;5094888;28;20442;-77
2023/09/19 11:24:27;;;;;;;;;;;;;;;32.05;26.09;99654.84;5095150;28;20383;-75
2023/09/19 11:27:08;;;;;;;;;;;;;;;32.03;28.05;99651.63;5095017;28;19991;-74
2023/09/19 11:29:33;;;;;;;;;;;;;;;32.07;29.52;99652.59;5090909;28;19970;-74
2023/09/19 11:32:02;;;;;;;;;;;;;;;32.10;27.81;99643.78;5072264;28;20343;-75
2023/09/19 11:34:36;;;;;;;;;;;;;;;32.06;27.76;99640.06;5084458;28;19963;-75
2023/09/19 11:37:04;;;;;;;;;;;;;;;32.20;25.64;99629.81;5094022;28;19920;-76
2023/09/19 11:39:29;;;;;;;;;;;;;;;32.23;28.18;99629.16;5095130;28;19912;-75
2023/09/19 11:41:57;;;;;;;;;;;;;;;32.14;28.27;99624.81;5092920;28;20316;-76
2023/09/19 11:44:26;;;;;;;;;;;;;;;32.18;26.27;99614.84;5092076;28;20488;-76
2023/09/19 11:46:52;;;;;;;;;;;;;;;32.18;27.34;99603.94;5093474;28;19916;-76
2023/09/19 11:49:21;;;;;;;;;;;;;;;32.00;27.22;99607.75;5075922;28;19916;-76
2023/09/19 11:51:48;;;;;;;;;;;;;;;31.88;27.07;99608.34;5076518;28;19912;-75
2023/09/19 11:54:21;;;;;;;;;;;;;;;31.66;26.63;99600.22;5074882;28;20381;-76
2023/09/19 11:56:50;;;;;;;;;;;;;;;31.60;27.67;99599.56;5092929;28;19926;-75
2023/09/19 11:59:22;;;;;;;;;;;;;;;31.48;26.81;99596.63;5093006;28;19916;-74
2023/09/19 12:01:57;;;;;;;;;;;;;;;31.28;29.23;99598.00;5076203;28;19927;-75
2023/09/19 12:04:33;;;;;;;;;;;;;;;31.10;25.74;99588.84;5093346;28;19916;-77
2023/09/19 12:06:58;;;;;;;;;;;;;;;30.93;29.92;99591.47;5075540;28;20353;-76
2023/09/19 12:09:24;;;;;;;;;;;;;;;30.67;27.83;99591.31;5093734;28;19969;-76
2023/09/19 12:11:51;;;;;;;;;;;;;;;30.52;28.30;99578.03;5090777;28;19936;-76
2023/09/19 12:14:24;;;;;;;;;;;;;;;30.35;28.59;99582.19;5090125;28;19912;-76
2023/09/19 12:16:56;;;;;;;;;;;;;;;30.21;28.06;99570.53;5092555;28;19924;-76
2023/09/19 12:19:23;;;;;;;;;;;;;;;30.17;30.09;99571.47;5092164;28;19916;-75
2023/09/19 12:21:59;;;;;;;;;;;;;;;30.13;29.05;99565.00;5092246;28;19925;-75
2023/09/19 12:24:29;;;;;;;;;;;;;;;29.91;27.62;99554.84;5094088;28;20453;-76
2023/09/19 12:26:56;;;;;;;;;;;;;;;29.77;29.47;99557.59;5092682;28;19916;-76
2023/09/19 12:29:22;;;;;;;;;;;;;;;29.79;29.45;99560.81;5091884;28;20312;-77
2023/09/19 12:31:54;;;;;;;;;;;;;;;29.79;30.64;99558.09;5093120;28;19916;-74
2023/09/19 12:34:21;;;;;;;;;;;;;;;29.77;29.54;99546.72;5093106;28;19920;-76
2023/09/19 12:36:46;;;;;;;;;;;;;;;29.86;30.08;99544.88;5093565;28;19923;-77
2023/09/19 12:39:23;;;;;;;;;;;;;;;29.93;29.72;99549.91;5093762;28;19912;-75
2023/09/19 12:41:48;;;;;;;;;;;;;;;29.80;29.54;99546.09;5084798;28;19916;-76
2023/09/19 12:44:15;;;;;;;;;;;;;;;29.80;29.87;99542.56;5089541;28;19988;-75
2023/09/19 12:46:42;;;;;;;;;;;;;;;29.77;29.97;99546.72;5093152;28;19990;-75
2023/09/19 12:49:17;;;;;;;;;;;;;;;29.72;30.32;99535.91;5055786;28;20325;-76
2023/09/19 12:51:43;;;;;;;;;;;;;;;29.55;29.42;99541.16;5089026;28;19955;-74
2023/09/19 12:54:10;;;;;;;;;;;;;;;29.36;29.28;99542.03;5090153;28;20429;-74